createdAt,value
2022-11-20T00:01:24.697Z,100797.56
2022-11-20T00:03:56.104Z,100799.94
2022-11-20T00:06:23.905Z,100799.94
2022-11-20T00:08:51.183Z,100802.63
2022-11-20T00:11:22.774Z,100798.84
2022-11-20T00:13:51.206Z,100799.94
2022-11-20T00:16:20.425Z,100799.59
2022-11-20T00:18:47.703Z,100790.97
2022-11-20T00:21:17.789Z,100794.84
2022-11-20T00:23:44.612Z,100803.28
2022-11-20T00:26:13.977Z,100800.78
2022-11-20T00:28:41.196Z,100800.41
2022-11-20T00:31:10.894Z,100793.78
2022-11-20T00:33:37.499Z,100790.88
2022-11-20T00:36:06.205Z,100789.25
2022-11-20T00:38:33.502Z,100789.94
2022-11-20T00:41:02.371Z,100798.38
2022-11-20T00:43:29.072Z,100787.66
2022-11-20T00:46:06.114Z,100787.72
2022-11-20T00:48:33.132Z,100787.97
2022-11-20T00:51:00.109Z,100784.03
2022-11-20T00:53:26.774Z,100787.72
2022-11-20T00:55:56.917Z,100789.31
2022-11-20T00:58:24.722Z,100789.34
2022-11-20T01:00:51.753Z,100782.53
2022-11-20T01:03:24.031Z,100779.84
2022-11-20T01:05:53.422Z,100779.19
2022-11-20T01:08:20.018Z,100776.84
2022-11-20T01:10:46.611Z,100774.66
2022-11-20T01:13:31.887Z,100765.03
2022-11-20T01:16:04.276Z,100764.84
2022-11-20T01:18:30.859Z,100767.50
2022-11-20T01:21:21.393Z,100763.03
2022-11-20T01:23:49.498Z,100761.91
2022-11-20T01:26:19.739Z,100763.06
2022-11-20T01:28:46.387Z,100760.44
2022-11-20T01:31:15.082Z,100769.31
2022-11-20T01:33:42.856Z,100768.75
2022-11-20T01:36:10.348Z,100770.53
2022-11-20T01:38:37.323Z,100777.53
2022-11-20T01:41:04.304Z,100762.75
2022-11-20T01:43:31.008Z,100771.56
2022-11-20T01:46:16.719Z,100757.22
2022-11-20T01:49:01.887Z,100760.88
2022-11-20T01:51:39.364Z,100766.13
2022-11-20T01:54:17.365Z,100761.28
2022-11-20T01:56:46.147Z,100769.03
2022-11-20T01:59:15.173Z,100767.72
2022-11-20T02:01:41.837Z,100756.53
2022-11-20T02:04:09.880Z,100746.31
2022-11-20T02:06:41.499Z,100740.94
2022-11-20T02:09:08.086Z,100750.16
2022-11-20T02:11:34.680Z,100755.19
2022-11-20T02:14:01.372Z,100743.88
2022-11-20T02:16:38.102Z,100746.09
2022-11-20T02:19:08.961Z,100737.03
2022-11-20T02:21:47.218Z,100725.19
2022-11-20T02:24:16.309Z,100730.88
2022-11-20T02:26:55.559Z,100742.25
2022-11-20T02:29:28.348Z,100730.78
2022-11-20T02:31:56.345Z,100729.59
2022-11-20T02:34:23.080Z,100730.44
2022-11-20T02:36:51.190Z,100734.06
2022-11-20T02:39:18.194Z,100736.06
2022-11-20T02:41:45.658Z,100728.88
2022-11-20T02:44:12.287Z,100731.28
2022-11-20T02:46:39.046Z,100727.66
2022-11-20T02:49:06.273Z,100724.22
2022-11-20T02:51:33.460Z,100732.09
2022-11-20T02:54:00.163Z,100722.75
2022-11-20T02:56:26.937Z,100723.03
2022-11-20T02:58:53.663Z,100725.09
2022-11-20T03:01:20.337Z,100724.13
2022-11-20T03:03:46.922Z,100715.88
2022-11-20T03:06:13.511Z,100712.69
2022-11-20T03:08:40.123Z,100713.19
2022-11-20T03:11:08.086Z,100712.22
2022-11-20T03:13:35.186Z,100710.41
2022-11-20T03:16:20.086Z,100713.84
2022-11-20T03:18:47.142Z,100711.84
2022-11-20T03:21:14.667Z,100721.53
2022-11-20T03:23:41.400Z,100717.91
2022-11-20T03:26:11.923Z,100722.00
2022-11-20T03:28:38.696Z,100711.19
2022-11-20T03:31:14.514Z,100708.72
2022-11-20T03:33:42.466Z,100707.63
2022-11-20T03:36:11.960Z,100707.22
2022-11-20T03:38:39.267Z,100704.84
2022-11-20T03:41:08.497Z,100705.31
2022-11-20T03:43:35.540Z,100709.31
2022-11-20T03:46:02.265Z,100711.88
2022-11-20T03:48:28.955Z,100704.94
2022-11-20T03:51:08.996Z,100697.19
2022-11-20T03:53:35.702Z,100700.81
2022-11-20T03:56:02.383Z,100696.16
2022-11-20T03:58:28.976Z,100699.03
2022-11-20T04:00:55.523Z,100699.94
2022-11-20T04:03:22.248Z,100697.16
2022-11-20T04:05:48.825Z,100690.13
2022-11-20T04:08:15.399Z,100701.50
2022-11-20T04:10:42.056Z,100699.41
2022-11-20T04:13:08.675Z,100688.97
2022-11-20T04:15:38.317Z,100694.75
2022-11-20T04:18:05.349Z,100692.03
2022-11-20T04:20:31.926Z,100691.09
2022-11-20T04:22:58.463Z,100694.06
2022-11-20T04:25:25.058Z,100690.78
2022-11-20T04:27:51.674Z,100685.63
2022-11-20T04:30:18.304Z,100692.44
2022-11-20T04:32:44.885Z,100692.72
2022-11-20T04:35:11.473Z,100696.38
2022-11-20T04:37:38.075Z,100691.31
2022-11-20T04:40:05.118Z,100685.09
2022-11-20T04:42:31.898Z,100688.47
2022-11-20T04:44:58.704Z,100696.25
2022-11-20T04:47:25.518Z,100700.13
2022-11-20T04:49:52.250Z,100700.81
2022-11-20T04:52:19.269Z,100696.84
2022-11-20T04:54:45.908Z,100694.22
2022-11-20T04:57:14.769Z,100696.50
2022-11-20T04:59:41.534Z,100693.97
2022-11-20T05:02:08.444Z,100690.88
2022-11-20T05:04:35.026Z,100693.63
2022-11-20T05:07:01.685Z,100690.81
2022-11-20T05:09:28.338Z,100691.50
2022-11-20T05:11:54.928Z,100689.97
2022-11-20T05:14:21.526Z,100693.13
2022-11-20T05:16:48.153Z,100690.59
2022-11-20T05:19:14.840Z,100698.31
2022-11-20T05:21:41.473Z,100691.34
2022-11-20T05:24:08.192Z,100692.06
2022-11-20T05:26:34.787Z,100697.69
2022-11-20T05:29:01.576Z,100697.78
2022-11-20T05:31:28.668Z,100691.59
2022-11-20T05:33:56.525Z,100689.47
2022-11-20T05:36:23.106Z,100684.06
2022-11-20T05:38:51.213Z,100680.75
2022-11-20T05:41:20.041Z,100685.38
2022-11-20T05:43:47.769Z,100688.22
2022-11-20T05:46:15.881Z,100686.88
2022-11-20T05:48:43.910Z,100685.44
2022-11-20T05:51:12.685Z,100681.50
2022-11-20T05:53:43.749Z,100686.66
2022-11-20T05:56:16.469Z,100687.47
2022-11-20T05:58:43.004Z,100684.75
2022-11-20T06:01:21.048Z,100674.25
2022-11-20T06:03:48.784Z,100681.13
2022-11-20T06:06:16.516Z,100677.72
2022-11-20T06:08:43.551Z,100676.69
2022-11-20T06:11:11.700Z,100678.09
2022-11-20T06:13:42.013Z,100678.81
2022-11-20T06:16:09.862Z,100677.09
2022-11-20T06:18:36.513Z,100678.09
2022-11-20T06:21:11.138Z,100677.34
2022-11-20T06:23:38.105Z,100679.38
2022-11-20T06:26:06.940Z,100682.78
2022-11-20T06:28:33.780Z,100678.56
2022-11-20T06:31:00.759Z,100689.91
2022-11-20T06:33:27.928Z,100683.91
2022-11-20T06:36:00.955Z,100691.75
2022-11-20T06:38:29.789Z,100684.44
2022-11-20T06:40:56.823Z,100688.97
2022-11-20T06:43:24.006Z,100689.50
2022-11-20T06:45:55.113Z,100687.94
2022-11-20T06:48:22.096Z,100698.41
2022-11-20T06:50:48.799Z,100692.97
2022-11-20T06:53:15.564Z,100701.91
2022-11-20T06:55:46.750Z,100700.09
2022-11-20T06:58:14.715Z,100698.16
2022-11-20T07:00:41.575Z,100702.34
2022-11-20T07:03:09.904Z,100702.16
2022-11-20T07:05:36.841Z,100705.69
2022-11-20T07:08:04.270Z,100710.75
2022-11-20T07:10:30.842Z,100710.28
2022-11-20T07:12:57.579Z,100706.50
2022-11-20T07:15:25.169Z,100709.19
2022-11-20T07:17:51.911Z,100714.91
2022-11-20T07:20:18.651Z,100714.69
2022-11-20T07:22:45.417Z,100712.13
2022-11-20T07:25:12.073Z,100712.94
2022-11-20T07:27:38.686Z,100714.69
2022-11-20T07:30:05.794Z,100703.84
2022-11-20T07:32:32.410Z,100711.75
2022-11-20T07:34:59.097Z,100706.47
2022-11-20T07:37:25.670Z,100701.34
2022-11-20T07:39:52.243Z,100701.69
2022-11-20T07:42:18.825Z,100698.63
2022-11-20T07:44:45.402Z,100696.16
2022-11-20T07:47:11.997Z,100695.72
2022-11-20T07:49:38.540Z,100701.81
2022-11-20T07:52:05.554Z,100694.81
2022-11-20T07:54:32.944Z,100688.66
2022-11-20T07:56:59.508Z,100682.19
2022-11-20T07:59:26.072Z,100684.16
2022-11-20T08:01:52.832Z,100674.44
2022-11-20T08:04:19.529Z,100675.91
2022-11-20T08:06:46.377Z,100680.31
2022-11-20T08:09:12.958Z,100674.06
2022-11-20T08:11:58.283Z,100682.47
2022-11-20T08:14:24.896Z,100679.09
2022-11-20T08:16:51.486Z,100692.00
2022-11-20T08:19:19.415Z,100697.94
2022-11-20T08:21:46.601Z,100684.50
2022-11-20T08:24:13.308Z,100690.34
2022-11-20T08:26:40.754Z,100692.78
2022-11-20T08:29:07.427Z,100690.78
2022-11-20T08:31:34.493Z,100695.19
2022-11-20T08:34:03.871Z,100697.69
2022-11-20T08:36:35.134Z,100691.59
2022-11-20T08:39:02.279Z,100696.69
2022-11-20T08:41:31.994Z,100705.22
2022-11-20T08:44:01.067Z,100698.13
2022-11-20T08:46:38.381Z,100699.84
2022-11-20T08:49:06.089Z,100704.56
2022-11-20T08:51:33.604Z,100702.63
2022-11-20T08:54:00.229Z,100697.72
2022-11-20T08:56:26.910Z,100704.81
2022-11-20T09:01:40.614Z,100693.53
2022-11-20T09:04:07.287Z,100687.97
2022-11-20T09:06:33.912Z,100688.94
2022-11-20T09:09:05.120Z,100684.66
2022-11-20T09:11:33.446Z,100682.78
2022-11-20T09:14:01.089Z,100677.47
2022-11-20T09:16:27.652Z,100678.97
2022-11-20T09:19:13.554Z,100679.41
2022-11-20T09:21:40.858Z,100669.53
2022-11-20T09:24:07.707Z,100675.09
2022-11-20T09:26:34.349Z,100670.56
2022-11-20T09:29:00.955Z,100674.66
2022-11-20T09:31:27.698Z,100677.91
2022-11-20T09:33:54.484Z,100668.53
2022-11-20T09:36:21.179Z,100667.72
2022-11-20T09:38:48.051Z,100667.16
2022-11-20T09:41:37.618Z,100661.13
2022-11-20T09:44:33.822Z,100655.19
2022-11-20T09:47:17.084Z,100654.13
2022-11-20T09:50:13.496Z,100656.53
2022-11-20T09:53:02.639Z,100659.28
2022-11-20T09:55:30.468Z,100651.16
2022-11-20T09:57:58.034Z,100656.28
2022-11-20T10:00:24.798Z,100654.03
2022-11-20T10:02:57.112Z,100664.72
2022-11-20T10:05:43.240Z,100669.84
2022-11-20T10:08:26.965Z,100662.91
2022-11-20T10:11:14.270Z,100653.00
2022-11-20T10:13:40.875Z,100649.22
2022-11-20T10:16:20.246Z,100649.41
2022-11-20T10:18:56.314Z,100641.91
2022-11-20T10:21:33.974Z,100644.94
2022-11-20T10:24:06.704Z,100640.88
2022-11-20T10:26:59.497Z,100630.53
2022-11-20T10:29:34.868Z,100629.63
2022-11-20T10:32:04.779Z,100618.25
2022-11-20T10:34:52.404Z,100613.59
2022-11-20T10:37:28.627Z,100617.09
2022-11-20T10:40:12.957Z,100605.34
2022-11-20T10:42:44.862Z,100601.50
2022-11-20T10:45:26.796Z,100607.34
2022-11-20T10:48:32.394Z,100590.66
2022-11-20T10:51:49.193Z,100603.63
2022-11-20T10:54:31.051Z,100604.13
2022-11-20T10:57:03.475Z,100603.63
2022-11-20T10:59:39.183Z,100598.19
2022-11-20T11:02:25.748Z,100584.31
2022-11-20T11:04:56.034Z,100589.34
2022-11-20T11:07:25.931Z,100584.47
2022-11-20T11:09:57.275Z,100593.03
2022-11-20T11:12:26.614Z,100576.56
2022-11-20T11:14:54.992Z,100569.34
2022-11-20T11:17:33.119Z,100563.25
2022-11-20T11:20:06.614Z,100561.72
2022-11-20T11:22:35.598Z,100558.94
2022-11-20T11:25:02.385Z,100546.91
2022-11-20T11:27:29.139Z,100541.59
2022-11-20T11:30:15.237Z,100537.06
2022-11-20T11:32:41.877Z,100525.00
2022-11-20T11:35:20.721Z,100524.22
2022-11-20T11:37:48.283Z,100523.00
2022-11-20T11:40:30.597Z,100510.59
2022-11-20T11:43:00.390Z,100512.13
2022-11-20T11:45:33.068Z,100507.31
2022-11-20T11:48:01.836Z,100496.94
2022-11-20T11:50:29.803Z,100502.31
2022-11-20T11:53:08.626Z,100500.66
2022-11-20T11:55:46.248Z,100494.63
2022-11-20T11:58:34.472Z,100480.34
2022-11-20T12:01:22.942Z,100480.22
2022-11-20T12:04:01.454Z,100477.53
2022-11-20T12:06:30.933Z,100474.63
2022-11-20T12:09:00.949Z,100473.19
2022-11-20T12:11:34.720Z,100474.63
2022-11-20T12:14:12.719Z,100468.97
2022-11-20T12:16:40.220Z,100472.19
2022-11-20T12:19:14.858Z,100470.56
2022-11-20T12:21:47.632Z,100473.63
2022-11-20T12:24:14.176Z,100464.69
2022-11-20T12:26:50.613Z,100453.91
2022-11-20T12:29:26.684Z,100460.47
2022-11-20T12:32:12.330Z,100454.38
2022-11-20T12:34:46.542Z,100452.31
2022-11-20T12:37:23.281Z,100449.94
2022-11-20T12:39:51.830Z,100445.47
2022-11-20T12:42:58.900Z,100445.00
2022-11-20T12:45:57.569Z,100445.81
2022-11-20T12:48:36.576Z,100436.16
2022-11-20T12:51:19.381Z,100425.75
2022-11-20T12:54:28.157Z,100425.56
2022-11-20T12:57:21.143Z,100419.56
2022-11-20T13:00:12.416Z,100408.44
2022-11-20T13:02:57.204Z,100399.38
2022-11-20T13:05:44.891Z,100399.91
2022-11-20T13:08:35.896Z,100391.53
2022-11-20T13:11:24.316Z,100394.31
2022-11-20T13:14:00.127Z,100389.97
2022-11-20T13:16:33.163Z,100385.78
2022-11-20T13:19:04.068Z,100381.88
2022-11-20T13:21:42.628Z,100373.84
2022-11-20T13:24:22.509Z,100369.38
2022-11-20T13:26:49.286Z,100360.53
2022-11-20T13:29:20.149Z,100353.66
2022-11-20T13:31:48.388Z,100348.66
2022-11-20T13:34:27.075Z,100352.59
2022-11-20T13:36:58.725Z,100352.31
2022-11-20T13:39:30.719Z,100343.72
2022-11-20T13:41:59.799Z,100349.44
2022-11-20T13:44:31.862Z,100337.13
2022-11-20T13:46:58.503Z,100337.28
2022-11-20T13:49:34.917Z,100327.94
2022-11-20T13:52:32.435Z,100324.34
2022-11-20T13:55:01.993Z,100319.34
2022-11-20T13:57:46.928Z,100314.69
2022-11-20T14:00:19.316Z,100310.13
2022-11-20T14:03:07.740Z,100308.94
2022-11-20T14:05:37.596Z,100302.47
2022-11-20T14:08:06.674Z,100296.47
2022-11-20T14:10:33.410Z,100295.50
2022-11-20T14:13:11.434Z,100294.75
2022-11-20T14:15:44.677Z,100280.63
2022-11-20T14:18:20.247Z,100278.78
2022-11-20T14:20:47.008Z,100267.00
2022-11-20T14:23:13.767Z,100255.50
2022-11-20T14:25:44.183Z,100237.44
2022-11-20T14:28:26.013Z,100239.03
2022-11-20T14:30:53.088Z,100242.56
2022-11-20T14:33:22.126Z,100237.53
2022-11-20T14:35:51.033Z,100239.09
2022-11-20T14:38:21.307Z,100239.44
2022-11-20T14:40:48.033Z,100230.47
2022-11-20T14:43:29.348Z,100228.50
2022-11-20T14:46:08.416Z,100217.25
2022-11-20T14:48:56.757Z,100220.16
2022-11-20T14:51:37.917Z,100210.50
2022-11-20T14:54:20.305Z,100209.28
2022-11-20T14:56:58.074Z,100208.28
2022-11-20T14:59:26.057Z,100203.84
2022-11-20T15:01:57.367Z,100195.25
2022-11-20T15:04:24.096Z,100191.47
2022-11-20T15:06:56.920Z,100186.56
2022-11-20T15:09:24.557Z,100185.84
2022-11-20T15:11:59.768Z,100173.06
2022-11-20T15:14:33.707Z,100173.78
2022-11-20T15:17:00.541Z,100168.66
2022-11-20T15:19:28.052Z,100156.19
2022-11-20T15:21:54.742Z,100156.19
2022-11-20T15:24:27.374Z,100151.63
2022-11-20T15:26:54.010Z,100151.47
2022-11-20T15:29:22.064Z,100149.00
2022-11-20T15:31:48.717Z,100140.94
2022-11-20T15:34:16.527Z,100140.16
2022-11-20T15:36:44.029Z,100132.09
2022-11-20T15:39:12.619Z,100127.69
2022-11-20T15:41:40.048Z,100128.38
2022-11-20T15:44:06.911Z,100127.63
2022-11-20T15:46:39.467Z,100132.16
2022-11-20T15:49:07.088Z,100129.53
2022-11-20T15:51:39.049Z,100127.38
2022-11-20T15:54:16.676Z,100122.84
2022-11-20T15:56:43.287Z,100119.69
2022-11-20T15:59:09.948Z,100123.03
2022-11-20T16:01:36.992Z,100107.06
2022-11-20T16:04:03.795Z,100113.84
2022-11-20T16:06:30.405Z,100110.13
2022-11-20T16:08:57.001Z,100113.53
2022-11-20T16:11:23.640Z,100109.34
2022-11-20T16:14:08.844Z,100114.31
2022-11-20T16:16:37.959Z,100111.66
2022-11-20T16:19:04.961Z,100106.16
2022-11-20T16:21:32.204Z,100108.91
2022-11-20T16:24:00.300Z,100099.38
2022-11-20T16:26:27.093Z,100092.31
2022-11-20T16:28:54.084Z,100084.59
2022-11-20T16:31:21.223Z,100079.22
2022-11-20T16:33:55.526Z,100069.50
2022-11-20T16:36:23.718Z,100063.06
2022-11-20T16:38:54.706Z,100050.38
2022-11-20T16:41:21.758Z,100038.94
2022-11-20T16:43:53.371Z,100031.72
2022-11-20T16:46:22.489Z,100040.16
2022-11-20T16:48:57.519Z,100029.75
2022-11-20T16:51:25.242Z,100028.09
2022-11-20T16:53:52.381Z,100030.19
2022-11-20T16:56:21.401Z,100022.50
2022-11-20T16:58:49.549Z,100009.31
2022-11-20T17:01:21.033Z,100007.41
2022-11-20T17:03:54.936Z,100005.31
2022-11-20T17:06:23.895Z,99998.28
2022-11-20T17:08:50.614Z,99991.69
2022-11-20T17:11:18.933Z,99990.22
2022-11-20T17:13:46.555Z,99988.06
2022-11-20T17:16:18.836Z,99978.59
2022-11-20T17:18:45.599Z,99964.56
2022-11-20T17:21:13.040Z,99949.75
2022-11-20T17:23:41.707Z,99943.63
2022-11-20T17:26:14.462Z,99939.03
2022-11-20T17:28:41.641Z,99921.38
2022-11-20T17:31:16.323Z,99919.97
2022-11-20T17:33:45.276Z,99919.34
2022-11-20T17:36:19.158Z,99915.81
2022-11-20T17:38:46.231Z,99910.22
2022-11-20T17:41:16.314Z,99902.97
2022-11-20T17:43:43.385Z,99898.31
2022-11-20T17:46:18.434Z,99886.56
2022-11-20T17:48:45.986Z,99886.25
2022-11-20T17:51:14.876Z,99882.31
2022-11-20T17:53:43.206Z,99877.72
2022-11-20T17:56:28.878Z,99868.56
2022-11-20T17:58:56.418Z,99861.50
2022-11-20T18:01:23.245Z,99866.84
2022-11-20T18:03:50.349Z,99853.28
2022-11-20T18:06:18.077Z,99856.38
2022-11-20T18:08:44.969Z,99850.91
2022-11-20T18:11:13.787Z,99844.63
2022-11-20T18:14:00.175Z,99841.94
2022-11-20T18:16:27.916Z,99831.91
2022-11-20T18:18:58.755Z,99830.94
2022-11-20T18:21:27.570Z,99820.34
2022-11-20T18:23:58.534Z,99819.47
2022-11-20T18:26:25.855Z,99822.22
2022-11-20T18:28:53.003Z,99817.78
2022-11-20T18:31:20.045Z,99817.34
2022-11-20T18:33:47.000Z,99800.91
2022-11-20T18:36:17.240Z,99807.75
2022-11-20T18:38:45.176Z,99794.34
2022-11-20T18:41:36.021Z,99799.28
2022-11-20T18:44:23.371Z,99798.16
2022-11-20T18:46:50.283Z,99779.63
2022-11-20T18:49:17.072Z,99784.03
2022-11-20T18:51:47.147Z,99774.44
2022-11-20T18:54:14.227Z,99766.44
2022-11-20T18:56:41.112Z,99758.28
2022-11-20T18:59:09.806Z,99740.69
2022-11-20T19:01:37.594Z,99738.63
2022-11-20T19:04:09.210Z,99742.59
2022-11-20T19:06:49.174Z,99737.13
2022-11-20T19:09:16.213Z,99737.81
2022-11-20T19:11:45.152Z,99734.97
2022-11-20T19:14:11.882Z,99725.38
2022-11-20T19:16:38.493Z,99723.69
2022-11-20T19:19:06.576Z,99708.47
2022-11-20T19:21:33.512Z,99710.72
2022-11-20T19:24:05.076Z,99709.97
2022-11-20T19:26:31.940Z,99708.81
2022-11-20T19:28:58.891Z,99703.94
2022-11-20T19:31:29.489Z,99697.66
2022-11-20T19:34:02.258Z,99707.72
2022-11-20T19:36:33.924Z,99712.06
2022-11-20T19:39:04.033Z,99702.06
2022-11-20T19:41:31.702Z,99701.53
2022-11-20T19:44:05.073Z,99700.94
2022-11-20T19:46:34.378Z,99702.47
2022-11-20T19:49:01.522Z,99702.47
2022-11-20T19:51:30.280Z,99715.28
2022-11-20T19:54:03.614Z,99714.13
2022-11-20T19:56:31.845Z,99723.66
2022-11-20T19:59:01.956Z,99717.31
2022-11-20T20:01:31.821Z,99713.66
2022-11-20T20:04:05.585Z,99721.28
2022-11-20T20:06:35.279Z,99728.34
2022-11-20T20:09:08.034Z,99725.63
2022-11-20T20:11:36.077Z,99723.75
2022-11-20T20:14:08.590Z,99741.47
2022-11-20T20:16:36.420Z,99739.56
2022-11-20T20:19:04.525Z,99749.19
2022-11-20T20:21:35.560Z,99766.34
2022-11-20T20:24:05.742Z,99754.94
2022-11-20T20:26:33.447Z,99770.31
2022-11-20T20:29:01.665Z,99767.75
2022-11-20T20:31:32.531Z,99766.91
2022-11-20T20:33:59.423Z,99793.50
2022-11-20T20:36:26.659Z,99786.69
2022-11-20T20:38:55.153Z,99793.94
2022-11-20T20:41:23.814Z,99794.41
2022-11-20T20:44:09.695Z,99782.34
2022-11-20T20:46:36.427Z,99794.69
2022-11-20T20:49:03.318Z,99796.41
2022-11-20T20:51:30.213Z,99795.91
2022-11-20T20:53:57.433Z,99807.56
2022-11-20T20:56:24.481Z,99821.03
2022-11-20T20:58:53.668Z,99809.81
2022-11-20T21:01:21.327Z,99816.41
2022-11-20T21:03:50.016Z,99830.94
2022-11-20T21:06:16.894Z,99828.84
2022-11-20T21:08:44.582Z,99829.72
2022-11-20T21:11:14.370Z,99833.56
2022-11-20T21:13:43.090Z,99833.91
2022-11-20T21:16:11.266Z,99845.88
2022-11-20T21:18:38.302Z,99855.34
2022-11-20T21:21:28.438Z,99849.97
2022-11-20T21:23:55.225Z,99858.91
2022-11-20T21:26:22.308Z,99853.16
2022-11-20T21:28:52.313Z,99856.19
2022-11-20T21:31:23.688Z,99854.50
2022-11-20T21:33:53.014Z,99880.41
2022-11-20T21:36:22.090Z,99873.28
2022-11-20T21:38:50.612Z,99870.03
2022-11-20T21:41:17.203Z,99872.50
2022-11-20T21:43:44.310Z,99878.63
2022-11-20T21:46:12.930Z,99861.78
2022-11-20T21:48:41.236Z,99876.63
2022-11-20T21:51:09.521Z,99884.94
2022-11-20T21:53:36.715Z,99887.91
2022-11-20T21:56:07.150Z,99883.50
2022-11-20T21:58:34.882Z,99891.59
2022-11-20T22:01:08.487Z,99891.50
2022-11-20T22:03:35.714Z,99883.63
2022-11-20T22:06:02.320Z,99896.34
2022-11-20T22:08:29.023Z,99891.84
2022-11-20T22:11:01.120Z,99890.44
2022-11-20T22:13:46.879Z,99897.09
2022-11-20T22:16:14.143Z,99910.25
2022-11-20T22:18:51.136Z,99906.88
2022-11-20T22:21:19.582Z,99905.53
2022-11-20T22:23:46.194Z,99891.09
2022-11-20T22:26:15.373Z,99903.47
2022-11-20T22:28:42.308Z,99910.97
2022-11-20T22:31:10.664Z,99909.97
2022-11-20T22:33:38.670Z,99918.91
2022-11-20T22:36:10.760Z,99916.03
2022-11-20T22:38:39.623Z,99926.47
2022-11-20T22:41:16.747Z,99926.91
2022-11-20T22:43:44.662Z,99929.91
2022-11-20T22:46:12.307Z,99929.03
2022-11-20T22:48:41.277Z,99932.25
2022-11-20T22:51:09.152Z,99935.44
2022-11-20T22:53:36.129Z,99936.31
2022-11-20T22:56:03.434Z,99929.94
2022-11-20T22:58:30.951Z,99931.59
2022-11-20T23:01:16.616Z,99950.38
2022-11-20T23:03:45.217Z,99947.41
2022-11-20T23:06:12.602Z,99955.97
2022-11-20T23:08:40.612Z,99960.94
2022-11-20T23:11:09.768Z,99961.53
2022-11-20T23:13:36.531Z,99954.97
2022-11-20T23:16:14.773Z,99972.16
2022-11-20T23:18:42.003Z,99964.78
2022-11-20T23:21:10.693Z,99972.13
2022-11-20T23:23:37.525Z,99981.16
2022-11-20T23:26:06.154Z,99975.81
2022-11-20T23:28:33.053Z,99965.06
2022-11-20T23:30:59.838Z,99975.50
2022-11-20T23:33:26.635Z,99984.16
2022-11-20T23:35:53.577Z,99986.97
2022-11-20T23:38:20.200Z,99985.91
2022-11-20T23:40:50.857Z,99985.44
2022-11-20T23:43:18.548Z,99996.56
2022-11-20T23:45:53.073Z,99997.94
2022-11-20T23:48:20.762Z,99987.81
2022-11-20T23:50:47.503Z,99998.56
2022-11-20T23:53:15.009Z,100004.47
2022-11-20T23:55:46.381Z,100000.97
2022-11-20T23:58:14.014Z,100000.34
